Time;durP1;ratioP1;P1;durP2;ratioP2;P2;SDS_P1;SDS_P2;PMS_P1;PMS_P2;Temp;Humidity;BMP_temperature;BMP_pressure;BME280_temperature;BME280_humidity;BME280_pressure;Samples;Min_cycle;Max_cycle;Signal;HPM_P1;HPM_P2
2022/06/19 00:00:40;;;;;;;8.02;1.83;;;18.40;71.90;;;;;;5069171;28;20032;-60
2022/06/19 00:03:09;;;;;;;7.95;1.45;;;18.30;71.90;;;;;;5070656;28;20087;-60
2022/06/19 00:05:36;;;;;;;7.88;1.42;;;18.20;72.40;;;;;;5072223;28;20066;-60
2022/06/19 00:08:02;;;;;;;6.22;1.50;;;18.20;71.50;;;;;;5065481;28;20396;-60
2022/06/19 00:10:27;;;;;;;8.70;2.35;;;18.20;71.50;;;;;;5060867;28;20126;-60
2022/06/19 00:12:53;;;;;;;7.65;1.73;;;18.10;71.50;;;;;;5071660;28;20067;-60
2022/06/19 00:15:18;;;;;;;5.75;1.27;;;18.00;71.50;;;;;;5071373;28;20028;-60
2022/06/19 00:17:44;;;;;;;10.50;1.42;;;17.90;71.50;;;;;;5071699;28;20075;-60
2022/06/19 00:20:11;;;;;;;7.55;1.27;;;17.90;71.70;;;;;;5070716;28;20032;-59
2022/06/19 00:22:37;;;;;;;8.57;1.90;;;17.80;71.80;;;;;;5072960;28;20029;-60
2022/06/19 00:25:04;;;;;;;15.00;2.17;;;17.80;72.60;;;;;;5059260;28;20043;-60
2022/06/19 00:27:30;;;;;;;9.75;1.60;;;17.80;72.00;;;;;;5069211;28;20029;-60
2022/06/19 00:29:55;;;;;;;6.82;1.50;;;17.60;72.10;;;;;;5085753;28;20027;-59
2022/06/19 00:32:21;;;;;;;8.77;1.95;;;17.60;72.20;;;;;;5053788;28;20370;-60
2022/06/19 00:34:47;;;;;;;11.35;1.88;;;17.60;72.30;;;;;;5081616;28;20043;-59
2022/06/19 00:37:12;;;;;;;5.35;1.13;;;17.50;72.30;;;;;;5066424;28;20403;-60
2022/06/19 00:39:42;;;;;;;6.25;0.98;;;17.50;72.20;;;;;;5071651;28;20119;-60
2022/06/19 00:42:13;;;;;;;4.15;1.02;;;17.50;72.30;;;;;;5071589;28;20013;-59
2022/06/19 00:44:39;;;;;;;8.10;1.30;;;17.40;72.40;;;;;;5071900;28;20020;-60
2022/06/19 00:47:15;;;;;;;7.22;1.75;;;17.30;72.40;;;;;;5071577;28;20086;-60
2022/06/19 00:50:21;;;;;;;7.88;1.60;;;17.30;72.20;;;;;;5070994;28;20020;-60
2022/06/19 00:52:47;;;;;;;14.07;1.85;;;17.30;71.90;;;;;;5054731;28;20029;-60
2022/06/19 00:55:18;;;;;;;9.65;1.75;;;17.20;72.30;;;;;;5070360;28;20040;-60
2022/06/19 00:57:50;;;;;;;8.05;1.33;;;17.20;72.40;;;;;;5070491;28;20020;-60
2022/06/19 01:00:24;;;;;;;6.97;1.42;;;17.10;72.40;;;;;;5072471;28;20425;-60
2022/06/19 01:02:52;;;;;;;9.07;1.23;;;17.10;72.50;;;;;;5057636;28;20417;-59
2022/06/19 01:05:18;;;;;;;8.48;1.40;;;17.10;72.70;;;;;;5060572;28;20031;-60
2022/06/19 01:07:45;;;;;;;8.65;1.27;;;17.10;72.90;;;;;;5059958;28;20037;-59
2022/06/19 01:10:13;;;;;;;8.52;1.45;;;17.10;72.90;;;;;;5069641;28;20015;-60
2022/06/19 01:12:45;;;;;;;6.20;1.33;;;17.10;73.00;;;;;;5063644;28;20035;-60
2022/06/19 01:15:14;;;;;;;9.68;1.33;;;17.00;73.00;;;;;;5072669;28;20032;-60
2022/06/19 01:17:40;;;;;;;6.85;1.40;;;16.90;73.00;;;;;;5065470;28;20115;-59
2022/06/19 01:20:09;;;;;;;4.88;1.65;;;16.90;73.10;;;;;;5053033;28;20438;-60
2022/06/19 01:23:16;;;;;;;7.38;2.42;;;16.90;73.10;;;;;;5072382;28;20021;-59
2022/06/19 01:25:42;;;;;;;6.18;1.38;;;16.90;72.80;;;;;;5070520;28;20055;-59
2022/06/19 01:31:10;;;;;;;9.00;1.33;;;16.90;72.50;;;;;;5060048;28;20074;-59
2022/06/19 01:33:40;;;;;;;7.07;2.00;;;16.80;72.30;;;;;;5071165;28;20029;-60
2022/06/19 01:36:08;;;;;;;8.30;1.33;;;16.80;72.10;;;;;;5071960;28;20028;-60
2022/06/19 01:38:35;;;;;;;9.57;1.90;;;16.70;71.90;;;;;;5071228;28;20501;-59
2022/06/19 01:41:10;;;;;;;8.35;1.67;;;16.70;71.70;;;;;;5071834;28;20120;-59
2022/06/19 01:43:35;;;;;;;10.35;2.38;;;16.60;71.30;;;;;;5071076;28;20099;-59
2022/06/19 01:46:03;;;;;;;5.80;1.10;;;16.60;70.90;;;;;;5071918;28;20450;-59
2022/06/19 01:48:30;;;;;;;10.82;1.52;;;16.50;70.70;;;;;;5071517;28;20017;-59
2022/06/19 01:50:57;;;;;;;7.50;1.48;;;16.50;70.50;;;;;;5061472;28;20473;-59
2022/06/19 01:53:34;;;;;;;5.55;1.15;;;16.50;69.70;;;;;;5069322;28;20025;-59
2022/06/19 01:56:00;;;;;;;5.30;0.90;;;16.50;69.30;;;;;;5059551;28;20084;-59
2022/06/19 01:58:28;;;;;;;9.43;1.30;;;16.40;68.70;;;;;;5065028;28;20048;-59
2022/06/19 02:00:55;;;;;;;8.35;1.40;;;16.30;67.80;;;;;;5068484;28;20035;-59
2022/06/19 02:03:34;;;;;;;7.15;1.40;;;16.30;67.70;;;;;;5068836;28;20491;-59
2022/06/19 02:06:00;;;;;;;;;;;16.30;67.50;;;;;;5064378;28;20128;-60
2022/06/19 02:08:29;;;;;;;6.25;1.13;;;16.20;67.40;;;;;;5073837;28;20343;-59
2022/06/19 02:10:57;;;;;;;9.10;1.23;;;16.20;67.20;;;;;;5086711;28;20561;-59
2022/06/19 02:13:23;;;;;;;6.18;0.90;;;16.10;66.50;;;;;;5062454;28;20028;-59
2022/06/19 02:15:50;;;;;;;8.15;1.88;;;16.10;66.40;;;;;;5071360;28;20024;-59
2022/06/19 02:18:21;;;;;;;6.53;1.30;;;16.10;66.40;;;;;;5070584;28;20020;-59
2022/06/19 02:20:50;;;;;;;6.97;1.30;;;16.10;66.10;;;;;;5068187;28;20377;-59
2022/06/19 02:23:20;;;;;;;5.45;1.20;;;16.10;66.00;;;;;;5074108;28;20021;-60
2022/06/19 02:25:46;;;;;;;6.82;1.08;;;16.10;65.60;;;;;;5066583;28;20028;-60
2022/06/19 02:28:13;;;;;;;5.00;0.88;;;16.10;65.20;;;;;;5071706;28;20025;-59
2022/06/19 02:30:39;;;;;;;4.80;1.02;;;16.10;65.40;;;;;;5065507;28;20095;-60
2022/06/19 02:33:06;;;;;;;8.30;1.55;;;16.10;65.60;;;;;;5059423;28;20036;-59
2022/06/19 02:35:32;;;;;;;4.93;0.90;;;16.10;65.80;;;;;;5055911;28;20082;-60
2022/06/19 02:37:57;;;;;;;8.68;1.85;;;16.10;66.30;;;;;;5059231;28;20017;-59
2022/06/19 02:40:34;;;;;;;7.72;1.50;;;16.10;67.00;;;;;;5064993;28;20139;-59
2022/06/19 02:43:00;;;;;;;4.75;1.45;;;16.00;67.30;;;;;;5057116;28;20025;-59
2022/06/19 02:45:33;;;;;;;8.13;1.00;;;16.00;67.70;;;;;;5056186;28;20470;-60
2022/06/19 02:48:00;;;;;;;5.80;1.08;;;16.00;68.00;;;;;;5057259;28;20013;-59
2022/06/19 02:50:45;;;;;;;;;;;;;;;;;;;;;
2022/06/19 02:53:11;;;;;;;4.47;0.80;;;16.00;68.40;;;;;;5055971;28;20021;-59
2022/06/19 02:55:36;;;;;;;7.15;1.00;;;16.00;68.60;;;;;;5056408;28;20119;-59
2022/06/19 02:58:02;;;;;;;6.78;1.48;;;16.00;69.00;;;;;;5064430;28;20025;-59
2022/06/19 03:00:28;;;;;;;4.32;1.05;;;15.90;69.20;;;;;;5058798;28;20048;-59
2022/06/19 03:03:04;;;;;;;4.57;0.85;;;15.90;69.30;;;;;;5064174;28;20033;-59
2022/06/19 03:05:30;;;;;;;7.47;0.88;;;15.90;69.30;;;;;;5061415;28;20040;-59
2022/06/19 03:07:56;;;;;;;10.57;1.10;;;15.90;69.50;;;;;;5062559;28;20049;-59
2022/06/19 03:10:22;;;;;;;3.53;0.88;;;15.90;70.00;;;;;;5095625;28;20054;-59
2022/06/19 03:12:47;;;;;;;5.75;0.68;;;15.80;69.80;;;;;;5089479;28;20029;-59
2022/06/19 03:15:15;;;;;;;4.38;0.68;;;15.90;69.80;;;;;;5067340;28;20049;-59
2022/06/19 03:17:41;;;;;;;6.57;1.00;;;15.90;69.60;;;;;;5069673;28;20029;-59
2022/06/19 03:20:10;;;;;;;9.00;1.30;;;16.00;69.40;;;;;;5072358;28;20043;-59
2022/06/19 03:22:37;;;;;;;6.80;0.98;;;16.00;69.10;;;;;;5074198;28;20024;-59
2022/06/19 03:25:02;;;;;;;8.80;1.00;;;16.00;69.10;;;;;;5056925;28;20025;-59
2022/06/19 03:27:28;;;;;;;6.47;1.38;;;15.90;68.70;;;;;;5054156;28;20029;-59
2022/06/19 03:29:53;;;;;;;4.13;0.80;;;15.80;68.70;;;;;;5070901;28;20537;-59
2022/06/19 03:32:19;;;;;;;3.72;0.60;;;15.80;68.70;;;;;;5074062;28;20029;-59
2022/06/19 03:34:45;;;;;;;5.25;0.77;;;15.80;68.50;;;;;;5072482;28;20485;-59
2022/06/19 03:37:11;;;;;;;3.92;0.68;;;15.70;68.40;;;;;;5072607;28;20024;-59
2022/06/19 03:39:37;;;;;;;7.10;1.10;;;15.70;68.40;;;;;;5073519;28;20472;-59
2022/06/19 03:42:03;;;;;;;4.63;0.70;;;15.70;68.30;;;;;;5072729;28;20032;-60
2022/06/19 03:44:29;;;;;;;6.53;0.93;;;15.70;68.20;;;;;;5071918;28;20017;-59
2022/06/19 03:46:55;;;;;;;6.25;0.70;;;15.70;68.20;;;;;;5072579;28;20035;-59
2022/06/19 03:49:20;;;;;;;3.97;0.80;;;15.70;68.40;;;;;;5071190;28;20016;-59
2022/06/19 03:51:46;;;;;;;3.30;0.77;;;15.60;68.20;;;;;;5072487;28;20031;-59
2022/06/19 03:54:12;;;;;;;7.32;1.60;;;15.60;68.40;;;;;;5072139;28;20025;-59
2022/06/19 03:56:37;;;;;;;6.07;0.80;;;15.50;68.90;;;;;;5072503;28;20534;-59
2022/06/19 03:59:04;;;;;;;6.80;1.88;;;15.50;69.50;;;;;;5071215;28;20020;-59
2022/06/19 04:01:37;;;;;;;6.13;0.82;;;15.40;70.10;;;;;;5072711;28;20059;-59
2022/06/19 04:04:04;;;;;;;6.15;1.00;;;15.50;70.70;;;;;;5072466;28;20025;-59
2022/06/19 04:06:32;;;;;;;6.32;1.05;;;15.40;71.70;;;;;;5072573;28;20423;-59
2022/06/19 04:08:58;;;;;;;8.02;1.00;;;15.40;72.00;;;;;;5060115;28;20426;-59
2022/06/19 04:11:25;;;;;;;9.88;1.23;;;15.40;72.10;;;;;;5072898;28;20036;-59
2022/06/19 04:13:54;;;;;;;4.72;0.93;;;15.40;72.10;;;;;;5072368;28;20388;-59
2022/06/19 04:16:25;;;;;;;7.40;0.95;;;15.50;72.30;;;;;;5071687;28;20025;-59
2022/06/19 04:18:52;;;;;;;6.18;0.90;;;15.50;72.60;;;;;;5072294;28;20036;-59
2022/06/19 04:21:21;;;;;;;9.05;1.00;;;15.40;72.20;;;;;;5071945;28;20150;-59
2022/06/19 04:23:49;;;;;;;4.47;0.70;;;15.40;71.70;;;;;;5071972;28;20016;-59
2022/06/19 04:26:16;;;;;;;8.07;1.02;;;15.40;71.90;;;;;;5072151;28;20099;-59
2022/06/19 04:28:43;;;;;;;6.00;1.00;;;15.40;71.70;;;;;;5072835;28;20510;-59
2022/06/19 04:31:08;;;;;;;4.20;0.70;;;15.50;71.80;;;;;;5071448;28;20552;-59
2022/06/19 04:33:38;;;;;;;7.47;0.80;;;15.50;72.00;;;;;;5060533;28;20028;-59
2022/06/19 04:36:06;;;;;;;6.20;0.77;;;15.50;72.60;;;;;;5072418;28;20036;-59
2022/06/19 04:38:31;;;;;;;7.43;1.15;;;15.50;72.90;;;;;;5072559;28;20175;-59
2022/06/19 04:40:57;;;;;;;11.27;1.60;;;15.50;73.30;;;;;;5058177;28;20033;-59
2022/06/19 04:43:23;;;;;;;6.53;0.75;;;15.60;73.00;;;;;;5061166;28;20020;-59
2022/06/19 04:45:48;;;;;;;4.22;0.88;;;15.60;72.70;;;;;;5072349;28;20098;-59
2022/06/19 04:48:14;;;;;;;3.53;0.77;;;15.60;72.40;;;;;;5072738;28;20028;-59
2022/06/19 04:50:40;;;;;;;11.18;2.25;;;15.60;72.40;;;;;;5070641;28;20028;-59
2022/06/19 04:53:06;;;;;;;5.75;0.93;;;15.70;72.80;;;;;;5068110;28;20436;-59
2022/06/19 04:55:32;;;;;;;5.70;0.70;;;15.70;72.40;;;;;;5054282;28;20049;-59
2022/06/19 04:58:02;;;;;;;6.55;1.15;;;15.80;72.60;;;;;;5072382;28;20059;-59
2022/06/19 05:00:28;;;;;;;7.07;0.98;;;15.80;72.70;;;;;;5072143;28;20017;-59
2022/06/19 05:02:54;;;;;;;8.65;1.52;;;15.80;72.40;;;;;;5072510;28;20032;-59
2022/06/19 05:05:21;;;;;;;5.53;0.95;;;15.90;72.60;;;;;;5056036;28;20025;-59
2022/06/19 05:07:46;;;;;;;9.35;1.10;;;15.90;72.40;;;;;;5059453;28;20469;-59
2022/06/19 05:10:12;;;;;;;6.60;0.90;;;15.90;72.80;;;;;;5066026;28;20033;-59
2022/06/19 05:12:38;;;;;;;6.90;1.00;;;15.90;72.20;;;;;;5052731;28;20029;-59
2022/06/19 05:15:05;;;;;;;9.85;1.52;;;16.00;72.80;;;;;;5052727;28;20020;-59
2022/06/19 05:17:32;;;;;;;8.43;1.08;;;15.90;72.20;;;;;;5052505;28;20554;-59
2022/06/19 05:19:58;;;;;;;7.57;1.02;;;16.00;72.10;;;;;;5054511;28;20033;-59
2022/06/19 05:22:23;;;;;;;7.45;1.20;;;16.00;71.90;;;;;;5072032;28;20107;-59
2022/06/19 05:24:49;;;;;;;8.38;1.58;;;16.10;72.30;;;;;;5058518;28;20053;-60
2022/06/19 05:27:14;;;;;;;6.53;1.05;;;16.10;72.10;;;;;;5071975;28;20032;-59
2022/06/19 05:29:41;;;;;;;5.97;0.93;;;16.20;71.40;;;;;;5071645;28;20029;-59
2022/06/19 05:32:06;;;;;;;5.20;1.15;;;16.20;71.50;;;;;;5071988;28;20021;-59
2022/06/19 05:34:33;;;;;;;4.32;1.02;;;16.30;71.20;;;;;;5070238;28;20388;-59
2022/06/19 05:36:59;;;;;;;5.78;0.60;;;16.30;71.10;;;;;;5074802;28;20021;-59
2022/06/19 05:39:25;;;;;;;3.20;0.50;;;16.40;71.10;;;;;;5075681;28;20040;-59
2022/06/19 05:41:52;;;;;;;4.60;0.70;;;16.50;70.90;;;;;;5075788;28;20031;-59
2022/06/19 05:44:18;;;;;;;4.85;0.73;;;16.60;70.60;;;;;;5075640;28;20108;-59
2022/06/19 05:46:46;;;;;;;3.42;0.50;;;16.60;70.40;;;;;;5076030;28;20520;-59
2022/06/19 05:49:12;;;;;;;8.27;0.98;;;16.70;70.10;;;;;;5075741;28;20424;-59
2022/06/19 05:51:37;;;;;;;3.50;0.57;;;16.80;69.70;;;;;;5076029;28;20020;-59
2022/06/19 05:54:03;;;;;;;4.13;0.77;;;16.90;70.30;;;;;;5075282;28;20024;-59
2022/06/19 05:56:29;;;;;;;5.55;0.85;;;17.00;69.60;;;;;;5074379;28;20051;-59
2022/06/19 05:58:55;;;;;;;4.50;1.23;;;17.00;69.20;;;;;;5074338;28;20032;-59
2022/06/19 06:01:22;;;;;;;5.65;0.98;;;17.10;68.90;;;;;;5076020;28;20024;-59
2022/06/19 06:03:48;;;;;;;4.28;0.88;;;17.10;68.70;;;;;;5073441;28;20392;-59
2022/06/19 06:06:23;;;;;;;4.05;0.88;;;17.30;68.60;;;;;;5074632;28;20062;-59
2022/06/19 06:08:49;;;;;;;3.28;0.52;;;17.40;67.80;;;;;;5074774;28;20044;-59
2022/06/19 06:11:15;;;;;;;1.85;0.43;;;17.50;67.20;;;;;;5075448;28;20052;-59
2022/06/19 06:13:41;;;;;;;3.22;0.52;;;17.60;66.20;;;;;;5069847;28;20020;-59
2022/06/19 06:16:07;;;;;;;2.17;0.40;;;17.70;64.40;;;;;;5072013;28;20491;-59
2022/06/19 06:18:33;;;;;;;2.42;0.40;;;17.80;64.10;;;;;;5071922;28;20017;-59
2022/06/19 06:21:01;;;;;;;1.67;0.30;;;17.80;62.50;;;;;;5075023;28;20024;-59
2022/06/19 06:23:27;;;;;;;6.07;0.50;;;17.80;61.40;;;;;;5073191;28;20031;-59
2022/06/19 06:26:03;;;;;;;2.97;0.40;;;17.80;61.20;;;;;;5075296;28;20067;-59
2022/06/19 06:28:30;;;;;;;2.53;0.30;;;17.90;60.50;;;;;;5061975;28;20406;-59
2022/06/19 06:30:56;;;;;;;2.70;0.38;;;17.90;60.60;;;;;;5087236;28;20486;-59
2022/06/19 06:33:22;;;;;;;2.58;0.70;;;18.00;60.40;;;;;;5089727;28;20099;-59
2022/06/19 06:35:47;;;;;;;2.42;0.50;;;18.10;60.10;;;;;;5063249;28;20025;-59
2022/06/19 06:38:13;;;;;;;2.38;0.40;;;18.20;60.00;;;;;;5094634;28;20434;-59
2022/06/19 06:40:39;;;;;;;2.92;0.30;;;18.30;59.90;;;;;;5095174;28;20024;-59
2022/06/19 06:43:04;;;;;;;2.33;0.50;;;18.40;60.00;;;;;;5083896;28;20037;-59
2022/06/19 06:45:30;;;;;;;4.18;0.50;;;18.40;59.50;;;;;;5095663;28;20070;-59
2022/06/19 06:47:56;;;;;;;3.97;0.52;;;18.40;59.60;;;;;;5060710;28;20020;-59
2022/06/19 06:50:22;;;;;;;1.83;0.60;;;18.30;59.60;;;;;;5074722;28;20059;-59
2022/06/19 06:52:47;;;;;;;4.50;0.80;;;18.30;59.70;;;;;;5074128;28;20021;-59
2022/06/19 06:55:13;;;;;;;2.65;0.80;;;18.30;59.70;;;;;;5074572;28;20565;-59
2022/06/19 06:57:39;;;;;;;2.15;0.50;;;18.20;59.90;;;;;;5092913;28;20024;-59
2022/06/19 07:00:07;;;;;;;2.17;0.40;;;18.20;60.10;;;;;;5094215;28;20077;-60
2022/06/19 07:02:33;;;;;;;3.58;0.50;;;18.20;60.50;;;;;;5059922;28;20492;-59
2022/06/19 07:04:59;;;;;;;3.70;0.55;;;18.10;60.70;;;;;;5071750;28;20024;-59
2022/06/19 07:07:25;;;;;;;4.57;1.00;;;18.10;61.00;;;;;;5069332;28;20047;-59
2022/06/19 07:09:50;;;;;;;6.80;0.90;;;18.00;62.00;;;;;;5068292;28;20021;-59
2022/06/19 07:12:16;;;;;;;2.70;0.45;;;18.00;63.20;;;;;;5067115;28;20132;-59
2022/06/19 07:14:42;;;;;;;5.20;1.05;;;17.90;63.90;;;;;;5056526;28;20063;-60
2022/06/19 07:17:07;;;;;;;2.35;0.50;;;17.80;64.60;;;;;;5072011;28;20025;-59
2022/06/19 07:19:33;;;;;;;4.78;0.70;;;17.80;65.40;;;;;;5072636;28;20618;-59
2022/06/19 07:21:58;;;;;;;4.18;0.70;;;17.80;66.30;;;;;;5067903;28;20075;-59
2022/06/19 07:24:25;;;;;;;2.35;0.68;;;17.70;67.00;;;;;;5062499;28;20562;-59
2022/06/19 07:26:51;;;;;;;3.13;0.70;;;17.70;67.60;;;;;;5056419;28;20021;-59
2022/06/19 07:29:17;;;;;;;4.72;1.00;;;17.70;69.20;;;;;;5070535;28;20468;-59
2022/06/19 07:31:42;;;;;;;2.35;0.65;;;17.70;69.90;;;;;;5055787;28;20095;-59
2022/06/19 07:34:08;;;;;;;4.28;0.80;;;17.60;70.20;;;;;;5073114;28;20059;-59
2022/06/19 07:36:33;;;;;;;5.43;0.70;;;17.60;70.60;;;;;;5060867;28;20025;-59
2022/06/19 07:38:59;;;;;;;8.18;0.77;;;17.60;71.00;;;;;;5059911;28;20474;-59
2022/06/19 07:41:25;;;;;;;3.17;0.60;;;17.50;71.40;;;;;;5088767;28;20036;-59
2022/06/19 07:43:51;;;;;;;4.60;0.95;;;17.50;71.80;;;;;;5068164;28;20471;-59
2022/06/19 07:46:18;;;;;;;4.32;0.93;;;17.40;72.60;;;;;;5065792;28;20100;-59
2022/06/19 07:51:29;;;;;;;4.70;0.68;;;17.30;73.80;;;;;;5067549;28;20035;-58
2022/06/19 07:53:55;;;;;;;4.63;0.70;;;17.20;74.30;;;;;;5064737;28;20020;-59
2022/06/19 07:56:20;;;;;;;5.43;0.80;;;17.20;74.70;;;;;;5068894;28;20063;-59
2022/06/19 07:58:47;;;;;;;2.35;0.63;;;17.10;75.10;;;;;;5067947;28;20029;-59
2022/06/19 08:01:33;;;;;;;;;;;;;;;;;;;;;
2022/06/19 08:03:59;;;;;;;6.10;1.23;;;17.00;76.70;;;;;;5068124;28;20020;-59
2022/06/19 08:06:26;;;;;;;8.55;1.38;;;16.80;78.80;;;;;;5064474;28;20614;-59
2022/06/19 08:08:51;;;;;;;7.28;1.27;;;16.70;80.00;;;;;;5065799;28;20025;-59
2022/06/19 08:11:17;;;;;;;6.82;1.20;;;16.60;80.90;;;;;;5072681;28;20027;-59
2022/06/19 08:13:42;;;;;;;10.82;1.92;;;16.60;81.50;;;;;;5067489;28;20025;-59
2022/06/19 08:16:10;;;;;;;5.90;1.45;;;16.50;82.30;;;;;;5069410;28;20084;-59
2022/06/19 08:18:36;;;;;;;9.07;1.20;;;16.50;83.50;;;;;;5070322;28;20035;-59
2022/06/19 08:21:02;;;;;;;14.02;2.83;;;16.40;84.10;;;;;;5070818;28;20029;-59
2022/06/19 08:23:33;;;;;;;6.13;1.17;;;16.30;84.80;;;;;;5070066;28;20021;-59
2022/06/19 08:25:59;;;;;;;9.20;1.38;;;16.30;84.90;;;;;;5063493;28;20016;-60
2022/06/19 08:31:02;;;;;;;8.30;1.92;;;16.30;84.50;;;;;;5070671;28;20025;-59
2022/06/19 08:33:28;;;;;;;8.80;1.00;;;16.30;84.10;;;;;;5069955;28;20048;-60
2022/06/19 08:35:58;;;;;;;6.07;0.93;;;16.30;84.00;;;;;;5086649;28;20047;-59
2022/06/19 08:38:29;;;;;;;4.40;0.70;;;16.40;83.90;;;;;;5067520;28;20028;-59
2022/06/19 08:41:03;;;;;;;5.88;1.00;;;16.50;83.70;;;;;;5073511;28;20599;-59
2022/06/19 08:43:32;;;;;;;3.75;0.70;;;16.50;83.40;;;;;;5069286;28;20025;-59
2022/06/19 08:46:40;;;;;;;6.15;1.13;;;16.60;83.60;;;;;;5065588;28;20016;-59
2022/06/19 08:49:21;;;;;;;4.78;0.85;;;16.60;83.90;;;;;;5068614;28;20044;-60
2022/06/19 08:52:04;;;;;;;5.68;0.90;;;16.60;84.30;;;;;;5069436;28;20031;-59
2022/06/19 08:54:51;;;;;;;4.22;1.40;;;16.60;84.10;;;;;;5069311;28;20028;-59
2022/06/19 08:57:32;;;;;;;5.00;1.00;;;16.60;84.60;;;;;;5064980;28;20037;-59
2022/06/19 09:00:03;;;;;;;7.90;1.40;;;16.50;85.30;;;;;;5068898;28;20021;-59
2022/06/19 09:02:39;;;;;;;7.88;1.30;;;16.40;86.20;;;;;;5068408;28;20483;-59
2022/06/19 09:08:25;;;;;;;9.75;1.85;;;16.30;85.90;;;;;;5051830;28;20082;-59
2022/06/19 09:11:35;;;;;;;6.18;0.90;;;16.40;86.10;;;;;;5071803;28;20016;-59
2022/06/19 09:14:12;;;;;;;3.88;1.10;;;16.60;86.00;;;;;;5072230;28;20034;-59
2022/06/19 09:16:47;;;;;;;6.13;1.67;;;16.70;86.40;;;;;;5070863;28;20016;-59
2022/06/19 09:19:33;;;;;;;6.65;1.10;;;16.80;86.70;;;;;;5069083;28;20116;-59
2022/06/19 09:22:20;;;;;;;6.20;1.08;;;16.90;86.50;;;;;;5065591;28;20028;-59
2022/06/19 09:25:02;;;;;;;6.35;1.20;;;16.90;85.90;;;;;;5057912;28;20028;-59
2022/06/19 09:27:46;;;;;;;6.00;1.10;;;17.10;86.00;;;;;;5060992;28;20016;-59
2022/06/19 09:30:18;;;;;;;8.00;1.83;;;17.10;85.70;;;;;;5067319;28;20385;-60
2022/06/19 09:33:08;;;;;;;8.27;1.55;;;17.20;84.50;;;;;;5058252;28;20073;-59
2022/06/19 09:35:41;;;;;;;4.47;1.13;;;17.30;84.10;;;;;;5075183;28;20031;-60
2022/06/19 09:38:12;;;;;;;6.45;1.20;;;17.30;83.40;;;;;;5059312;28;20507;-60
2022/06/19 09:40:42;;;;;;;5.38;1.00;;;17.40;83.10;;;;;;5076717;28;20032;-59
2022/06/19 09:43:16;;;;;;;5.85;1.00;;;17.40;81.70;;;;;;5057087;28;20365;-59
2022/06/19 09:45:44;;;;;;;4.20;0.88;;;17.50;81.60;;;;;;5063601;28;20032;-59
2022/06/19 09:48:18;;;;;;;6.40;1.23;;;17.80;81.40;;;;;;5067070;28;20021;-59
2022/06/19 09:51:05;;;;;;;4.82;0.77;;;18.10;80.50;;;;;;5061434;28;20013;-59
2022/06/19 09:54:00;;;;;;;4.22;0.75;;;18.40;78.60;;;;;;5070977;28;20021;-59
2022/06/19 09:56:53;;;;;;;3.28;0.80;;;18.50;76.90;;;;;;5067255;28;20047;-59
2022/06/19 09:59:29;;;;;;;4.22;0.77;;;18.90;76.40;;;;;;5065537;28;20035;-60
2022/06/19 10:01:59;;;;;;;4.18;0.52;;;19.20;75.70;;;;;;5070054;28;20016;-59
2022/06/19 10:04:38;;;;;;;3.22;0.52;;;19.40;75.00;;;;;;5067245;28;20100;-59
2022/06/19 10:07:14;;;;;;;3.03;0.68;;;19.60;74.50;;;;;;5064613;28;20044;-59
2022/06/19 10:09:52;;;;;;;4.90;0.80;;;19.80;74.00;;;;;;5074325;28;20063;-59
2022/06/19 10:12:34;;;;;;;3.40;0.73;;;20.10;73.00;;;;;;5067184;28;20078;-60
2022/06/19 10:15:04;;;;;;;4.82;0.60;;;20.30;71.40;;;;;;5055843;28;20104;-60
2022/06/19 10:18:09;;;;;;;2.53;0.68;;;20.40;68.90;;;;;;5059636;28;20048;-59
2022/06/19 10:22:13;;;;;;;7.07;1.00;;;20.50;68.60;;;;;;5061951;28;20036;-59
2022/06/19 10:24:22;;;;;;;5.60;1.65;;;20.40;67.70;;;;;;5079882;28;20077;-60
2022/06/19 10:27:19;;;;;;;3.28;0.77;;;20.40;67.40;;;;;;5071216;28;20060;-60
2022/06/19 10:30:10;;;;;;;2.83;0.50;;;20.30;67.70;;;;;;5072307;28;20029;-59
2022/06/19 10:33:01;;;;;;;2.95;0.55;;;20.30;67.70;;;;;;5096819;28;20103;-59
2022/06/19 10:35:50;;;;;;;2.65;0.65;;;20.40;67.00;;;;;;5063960;28;20464;-59
2022/06/19 10:38:23;;;;;;;;;;;20.60;66.70;;;;;;5064677;28;20021;-60
2022/06/19 10:44:45;;;;;;;7.00;0.88;;;20.70;66.00;;;;;;5062734;28;20109;-60
2022/06/19 10:47:44;;;;;;;2.45;0.60;;;20.90;64.60;;;;;;5059772;28;20052;-60
2022/06/19 10:50:42;;;;;;;2.83;0.50;;;21.10;64.30;;;;;;5073213;28;20051;-59
2022/06/19 10:53:16;;;;;;;3.13;0.70;;;21.10;63.10;;;;;;5036804;28;20550;-59
2022/06/19 10:55:49;;;;;;;5.05;0.73;;;21.10;61.60;;;;;;5074050;28;20041;-59
2022/06/19 10:58:18;;;;;;;1.70;0.50;;;21.10;61.60;;;;;;5073503;28;20017;-59
2022/06/19 11:00:49;;;;;;;2.97;0.60;;;21.20;62.60;;;;;;5071051;28;20024;-60
2022/06/19 11:06:55;;;;;;;3.70;0.77;;;21.80;62.30;;;;;;5070408;28;20086;-60
2022/06/19 11:09:32;;;;;;;4.35;0.90;;;22.10;62.20;;;;;;5066947;28;20027;-59
2022/06/19 11:12:04;;;;;;;3.15;0.75;;;22.30;62.20;;;;;;5066648;28;20017;-60
2022/06/19 11:14:34;;;;;;;5.65;1.00;;;22.40;61.40;;;;;;5066975;28;20096;-60
2022/06/19 11:17:07;;;;;;;4.63;1.00;;;22.40;61.00;;;;;;5059884;28;20036;-59
2022/06/19 11:19:34;;;;;;;2.53;0.70;;;22.40;60.70;;;;;;5067446;28;20423;-60
2022/06/19 11:22:00;;;;;;;3.28;0.68;;;22.30;61.00;;;;;;5070856;28;20074;-59
2022/06/19 11:24:28;;;;;;;3.95;0.80;;;22.50;61.30;;;;;;5071692;28;20046;-60
2022/06/19 11:26:56;;;;;;;4.53;0.77;;;22.60;61.20;;;;;;5063832;28;20535;-62
2022/06/19 11:29:30;;;;;;;2.97;0.73;;;22.60;60.90;;;;;;5053040;28;20049;-60
2022/06/19 11:32:42;;;;;;;2.13;0.60;;;22.60;61.20;;;;;;5071374;28;20025;-61
2022/06/19 11:35:08;;;;;;;4.55;1.08;;;22.70;61.10;;;;;;5058418;28;20071;-60
2022/06/19 11:37:44;;;;;;;3.20;0.70;;;22.70;61.50;;;;;;5062014;28;20263;-60
2022/06/19 11:40:29;;;;;;;3.40;0.90;;;22.90;62.50;;;;;;5052413;28;20104;-60
2022/06/19 11:42:58;;;;;;;3.28;0.80;;;23.20;62.10;;;;;;5058558;28;20506;-60
2022/06/19 11:45:34;;;;;;;2.88;1.10;;;23.20;62.40;;;;;;5055912;28;20121;-59
2022/06/19 11:48:21;;;;;;;7.50;1.33;;;23.50;62.10;;;;;;5094971;28;20094;-60
2022/06/19 11:50:56;;;;;;;6.43;1.38;;;23.50;61.90;;;;;;5068048;28;20033;-60
2022/06/19 11:53:32;;;;;;;5.22;0.90;;;23.60;62.20;;;;;;5070205;28;20071;-60
2022/06/19 11:56:27;;;;;;;7.13;1.65;;;23.70;62.10;;;;;;5069523;28;20559;-60
2022/06/19 11:58:56;;;;;;;5.63;0.98;;;23.90;61.90;;;;;;5066123;28;20028;-59
2022/06/19 12:01:33;;;;;;;5.18;1.60;;;23.80;62.50;;;;;;5069262;28;20127;-60
2022/06/19 12:04:01;;;;;;;5.65;1.33;;;23.80;63.00;;;;;;5070633;28;20052;-60
2022/06/19 12:06:53;;;;;;;4.72;1.00;;;23.80;62.80;;;;;;5063724;28;20020;-59
2022/06/19 12:09:18;;;;;;;2.17;1.00;;;24.00;62.90;;;;;;5071997;28;20070;-60
2022/06/19 12:11:54;;;;;;;3.90;0.80;;;24.20;62.90;;;;;;5070634;28;20024;-60
2022/06/19 12:14:29;;;;;;;2.67;0.90;;;24.40;62.00;;;;;;5070061;28;20032;-60
2022/06/19 12:17:16;;;;;;;4.35;1.08;;;24.80;61.20;;;;;;5068269;28;20354;-60
2022/06/19 12:20:07;;;;;;;4.00;0.80;;;25.00;60.10;;;;;;5070517;28;20026;-60
2022/06/19 12:23:03;;;;;;;3.22;0.80;;;24.80;60.00;;;;;;5047935;28;20045;-60
2022/06/19 12:25:29;;;;;;;3.90;1.17;;;24.70;60.20;;;;;;5068544;28;20028;-61
2022/06/19 12:28:24;;;;;;;3.58;0.90;;;24.50;59.90;;;;;;5067342;28;20032;-60
2022/06/19 12:31:04;;;;;;;4.72;1.20;;;24.30;60.10;;;;;;5056842;28;20040;-60
2022/06/19 12:34:11;;;;;;;2.75;0.60;;;24.30;60.50;;;;;;5068348;28;20029;-60
2022/06/19 12:36:37;;;;;;;3.88;0.80;;;24.30;60.60;;;;;;5069278;28;20137;-60
2022/06/19 12:39:16;;;;;;;2.67;0.85;;;24.20;61.40;;;;;;5067491;28;20111;-60
2022/06/19 12:42:30;;;;;;;3.28;0.98;;;24.00;60.80;;;;;;5078547;28;20032;-60
2022/06/19 12:44:58;;;;;;;3.10;0.70;;;23.70;61.00;;;;;;5022673;28;20098;-60
2022/06/19 12:47:45;;;;;;;4.75;0.90;;;23.40;61.90;;;;;;5068914;28;20468;-60
2022/06/19 12:50:28;;;;;;;4.90;0.80;;;23.40;62.00;;;;;;5072602;28;20024;-60
2022/06/19 12:53:26;;;;;;;3.08;0.73;;;23.30;62.00;;;;;;5068207;28;20028;-60
2022/06/19 12:56:01;;;;;;;4.30;1.10;;;23.00;62.20;;;;;;5070025;28;20060;-60
2022/06/19 12:59:06;;;;;;;4.57;0.90;;;22.70;63.10;;;;;;5071257;28;20495;-61
2022/06/19 13:01:37;;;;;;;4.82;1.20;;;22.60;63.40;;;;;;5062459;28;20033;-60
2022/06/19 13:04:22;;;;;;;5.25;1.10;;;22.40;63.80;;;;;;5064628;28;20025;-60
2022/06/19 13:07:18;;;;;;;3.28;0.77;;;22.30;63.80;;;;;;5074507;28;20024;-60
2022/06/19 13:10:19;;;;;;;3.13;0.65;;;22.20;64.00;;;;;;5087552;27;20052;-60
2022/06/19 13:13:15;;;;;;;4.68;1.00;;;22.10;64.00;;;;;;5065256;28;20514;-60
2022/06/19 13:16:05;;;;;;;4.32;1.08;;;22.10;64.20;;;;;;5061108;28;20075;-60
2022/06/19 13:18:38;;;;;;;;;;;22.30;65.10;;;;;;5062814;28;20495;-60
2022/06/19 13:21:24;;;;;;;3.35;0.75;;;22.60;64.30;;;;;;5081877;28;19904;-60
2022/06/19 13:24:24;;;;;;;5.20;0.95;;;23.00;63.40;;;;;;5073196;28;20059;-60
2022/06/19 13:27:15;;;;;;;5.07;0.88;;;23.40;62.80;;;;;;5062651;28;20627;-60
2022/06/19 13:30:25;;;;;;;;;;;;;;;;;;;;;
2022/06/19 13:33:24;;;;;;;3.90;0.80;;;23.80;61.50;;;;;;5063376;28;20033;-60
2022/06/19 13:36:05;;;;;;;4.60;0.75;;;23.50;61.50;;;;;;5049248;28;20036;-59